Time;durP1;ratioP1;P1;durP2;ratioP2;P2;SDS_P1;SDS_P2;PMS_P1;PMS_P2;Temp;Humidity;BMP_temperature;BMP_pressure;BME280_temperature;BME280_humidity;BME280_pressure;Samples;Min_cycle;Max_cycle;Signal;HPM_P1;HPM_P2
2022/10/12 00:00:18;;;;;;;7.20;2.30;;;6.60;99.90;;;;;;4945803;28;20040;-83
2022/10/12 00:02:44;;;;;;;3.60;1.77;;;6.90;99.90;;;;;;4897528;29;20523;-82
2022/10/12 00:05:10;;;;;;;2.33;1.17;;;6.50;99.90;;;;;;4911221;29;20044;-83
2022/10/12 00:07:35;;;;;;;3.17;2.13;;;6.40;99.90;;;;;;4896338;29;20075;-82
2022/10/12 00:10:01;;;;;;;4.68;1.80;;;6.40;99.90;;;;;;4912903;29;20059;-83
2022/10/12 00:12:27;;;;;;;3.88;1.90;;;6.80;99.90;;;;;;4930476;29;20086;-83
2022/10/12 00:14:52;;;;;;;7.63;1.88;;;6.40;99.90;;;;;;4911277;29;20069;-82
2022/10/12 00:17:18;;;;;;;5.50;2.00;;;6.40;99.90;;;;;;4928280;29;20035;-82
2022/10/12 00:19:44;;;;;;;5.57;2.50;;;6.30;99.90;;;;;;4895321;29;20043;-82
2022/10/12 00:22:09;;;;;;;1.92;1.67;;;6.40;99.90;;;;;;4943618;28;20063;-82
2022/10/12 00:24:35;;;;;;;4.25;2.40;;;6.40;99.90;;;;;;4911894;29;20050;-82
2022/10/12 00:27:00;;;;;;;4.65;1.73;;;6.40;99.90;;;;;;4941883;28;20035;-82
2022/10/12 00:29:26;;;;;;;3.22;1.73;;;6.40;99.90;;;;;;4912303;29;20087;-82
2022/10/12 00:31:52;;;;;;;2.78;1.48;;;6.30;99.90;;;;;;4910904;29;20082;-82
2022/10/12 00:34:17;;;;;;;5.07;1.67;;;6.30;99.90;;;;;;4912110;29;20551;-82
2022/10/12 00:36:43;;;;;;;3.47;1.50;;;6.20;99.90;;;;;;4926983;29;20428;-82
2022/10/12 00:39:09;;;;;;;3.40;2.08;;;6.20;99.90;;;;;;4909943;29;20044;-83
2022/10/12 00:41:39;;;;;;;3.95;1.50;;;6.20;99.90;;;;;;4912255;29;20527;-83
2022/10/12 00:44:32;;;;;;;3.40;1.85;;;6.20;99.90;;;;;;4911428;29;20036;-83
2022/10/12 00:47:02;;;;;;;4.35;2.28;;;6.20;99.90;;;;;;4926306;29;20044;-83
2022/10/12 00:49:28;;;;;;;6.28;3.38;;;6.20;99.90;;;;;;4896920;29;20047;-82
2022/10/12 00:52:01;;;;;;;7.68;3.78;;;6.20;99.90;;;;;;4928397;29;20492;-83
2022/10/12 00:54:33;;;;;;;3.90;2.67;;;6.20;99.90;;;;;;4893887;29;20048;-83
2022/10/12 00:57:03;;;;;;;4.50;2.60;;;6.20;99.90;;;;;;4910228;29;20042;-83
2022/10/12 00:59:40;;;;;;;5.97;3.20;;;6.20;99.90;;;;;;4942625;28;20147;-83
2022/10/12 01:02:06;;;;;;;7.65;4.07;;;6.20;99.90;;;;;;4926427;29;20508;-83
2022/10/12 01:04:32;;;;;;;4.95;2.75;;;6.30;99.90;;;;;;4927894;29;20051;-82
2022/10/12 01:06:58;;;;;;;4.78;2.92;;;6.30;99.90;;;;;;4910995;29;20047;-83
2022/10/12 01:09:26;;;;;;;3.85;2.47;;;6.20;99.90;;;;;;4941391;28;20040;-83
2022/10/12 01:11:52;;;;;;;4.00;2.65;;;6.20;99.90;;;;;;4911221;29;20398;-82
2022/10/12 01:14:17;;;;;;;4.82;2.53;;;6.20;99.90;;;;;;4942483;28;20053;-82
2022/10/12 01:17:01;;;;;;;7.85;2.97;;;6.10;99.90;;;;;;4910435;29;20035;-83
2022/10/12 01:19:36;;;;;;;7.90;2.88;;;6.10;99.90;;;;;;4912919;29;20042;-82
2022/10/12 01:22:06;;;;;;;6.20;3.15;;;6.10;99.90;;;;;;4943246;28;20051;-83
2022/10/12 01:24:37;;;;;;;7.32;3.63;;;6.00;99.90;;;;;;4910052;29;20048;-83
2022/10/12 01:27:37;;;;;;;10.82;3.03;;;6.00;99.90;;;;;;4896395;29;20074;-82
2022/10/12 01:30:06;;;;;;;8.07;3.15;;;6.10;99.90;;;;;;4912730;29;20452;-83
2022/10/12 01:32:53;;;;;;;8.40;3.45;;;6.00;99.90;;;;;;4896049;29;20441;-82
2022/10/12 01:35:25;;;;;;;7.80;4.18;;;6.10;99.90;;;;;;4941056;28;20040;-82
2022/10/12 01:38:21;;;;;;;8.82;3.83;;;6.20;99.90;;;;;;4926288;29;20050;-82
2022/10/12 01:40:55;;;;;;;3.22;2.80;;;6.10;99.90;;;;;;4896122;29;20085;-82
2022/10/12 01:43:22;;;;;;;4.45;3.20;;;6.10;99.90;;;;;;4927149;29;20408;-82
2022/10/12 01:45:48;;;;;;;5.00;1.75;;;6.00;99.90;;;;;;4912131;29;20091;-83
2022/10/12 01:48:13;;;;;;;4.10;2.40;;;6.00;99.90;;;;;;4911229;29;20527;-82
2022/10/12 01:50:49;;;;;;;8.88;3.10;;;6.00;99.90;;;;;;4924699;29;20051;-83
2022/10/12 01:53:18;;;;;;;;;;;6.00;99.90;;;;;;4898212;29;20043;-82
2022/10/12 01:56:06;;;;;;;8.15;3.63;;;6.00;99.90;;;;;;4909321;29;19923;-83
2022/10/12 01:58:50;;;;;;;5.30;3.05;;;6.00;99.90;;;;;;4924099;29;20047;-83
2022/10/12 02:01:15;;;;;;;5.43;2.88;;;6.00;99.90;;;;;;4910515;29;20044;-83
2022/10/12 02:04:04;;;;;;;8.38;3.35;;;6.10;99.90;;;;;;4910020;29;20050;-82
2022/10/12 02:06:37;;;;;;;3.13;2.13;;;6.10;99.90;;;;;;4924232;29;20043;-82
2022/10/12 02:09:08;;;;;;;8.95;2.90;;;6.10;99.90;;;;;;4894884;29;20087;-82
2022/10/12 02:11:38;;;;;;;5.28;2.33;;;6.10;99.90;;;;;;4910506;29;20040;-82
2022/10/12 02:14:24;;;;;;;5.60;2.42;;;6.10;99.90;;;;;;4911101;29;20415;-83
2022/10/12 02:16:57;;;;;;;11.27;2.78;;;6.20;99.90;;;;;;4941572;28;20186;-83
2022/10/12 02:19:29;;;;;;;5.32;2.03;;;6.10;99.90;;;;;;4909057;29;20055;-83
2022/10/12 02:22:00;;;;;;;5.60;2.42;;;6.10;99.90;;;;;;4926589;29;20040;-83
2022/10/12 02:24:29;;;;;;;3.10;1.90;;;6.10;99.90;;;;;;4911152;29;20345;-83
2022/10/12 02:26:56;;;;;;;5.07;2.10;;;6.10;99.90;;;;;;4923938;29;20043;-83
2022/10/12 02:29:27;;;;;;;7.07;2.05;;;6.10;99.90;;;;;;4943030;29;20138;-82
2022/10/12 02:32:03;;;;;;;6.28;2.65;;;6.10;99.90;;;;;;4942845;28;20568;-83
2022/10/12 02:34:51;;;;;;;6.63;1.90;;;6.20;99.90;;;;;;4924147;29;20042;-83
2022/10/12 02:37:31;;;;;;;9.10;2.78;;;6.20;99.90;;;;;;4925573;29;20086;-83
2022/10/12 02:40:14;;;;;;;4.68;2.50;;;6.20;99.90;;;;;;4926797;29;20040;-83
2022/10/12 02:42:45;;;;;;;10.57;2.33;;;6.20;99.90;;;;;;4908605;29;20500;-82
2022/10/12 02:45:13;;;;;;;7.88;2.72;;;6.20;99.90;;;;;;4942283;29;20086;-82
2022/10/12 02:47:41;;;;;;;10.02;3.33;;;6.30;99.90;;;;;;4942219;28;20055;-83
2022/10/12 02:50:09;;;;;;;6.68;3.53;;;6.30;99.90;;;;;;4941739;28;20044;-82
2022/10/12 02:52:35;;;;;;;4.95;2.60;;;6.40;99.90;;;;;;4909628;29;20051;-83
2022/10/12 02:55:00;;;;;;;7.97;3.65;;;6.40;99.90;;;;;;4925780;29;20044;-82
2022/10/12 02:57:26;;;;;;;7.82;2.40;;;6.40;99.90;;;;;;4894636;29;20043;-83
2022/10/12 02:59:52;;;;;;;9.90;2.80;;;7.40;99.90;;;;;;4911060;29;20142;-83
2022/10/12 03:02:17;;;;;;;6.85;2.97;;;6.40;99.90;;;;;;4894500;29;20044;-83
2022/10/12 03:04:43;;;;;;;9.98;3.65;;;6.40;99.90;;;;;;4909588;29;20047;-84
2022/10/12 03:07:09;;;;;;;7.45;3.35;;;6.40;99.90;;;;;;4929142;29;20629;-83
2022/10/12 03:09:34;;;;;;;6.97;3.53;;;6.40;99.90;;;;;;4897465;29;20111;-83
2022/10/12 03:12:00;;;;;;;5.45;2.70;;;6.30;99.90;;;;;;4913807;29;20130;-83
2022/10/12 03:14:26;;;;;;;6.70;2.10;;;6.20;99.90;;;;;;4913869;29;20080;-83
2022/10/12 03:16:52;;;;;;;4.70;1.95;;;6.20;99.90;;;;;;4911453;29;20656;-83
2022/10/12 03:19:17;;;;;;;5.20;1.63;;;6.10;99.90;;;;;;4914517;29;20047;-82
2022/10/12 03:21:43;;;;;;;6.50;2.80;;;6.00;99.90;;;;;;4929413;29;20028;-82
2022/10/12 03:24:09;;;;;;;3.60;1.55;;;5.90;99.90;;;;;;4898421;29;20511;-83
2022/10/12 03:26:35;;;;;;;3.78;1.92;;;5.90;99.90;;;;;;4928895;29;20051;-82
2022/10/12 03:29:00;;;;;;;6.00;1.50;;;5.80;99.90;;;;;;4897386;29;20074;-82
2022/10/12 03:31:26;;;;;;;11.25;1.88;;;5.80;99.90;;;;;;4928860;29;20503;-83
2022/10/12 03:33:51;;;;;;;3.40;1.83;;;5.80;99.90;;;;;;4946596;28;20110;-84
2022/10/12 03:36:17;;;;;;;4.88;1.80;;;5.80;99.90;;;;;;4898700;29;20090;-83
2022/10/12 03:38:42;;;;;;;3.63;1.90;;;5.80;99.90;;;;;;4945891;29;20028;-83
2022/10/12 03:41:08;;;;;;;3.83;2.22;;;5.80;99.90;;;;;;4944226;28;20583;-83
2022/10/12 03:43:34;;;;;;;4.13;1.98;;;5.80;99.90;;;;;;4928083;29;20111;-82
2022/10/12 03:45:59;;;;;;;5.47;2.15;;;5.80;99.90;;;;;;4927434;29;20052;-83
2022/10/12 03:48:26;;;;;;;4.45;2.63;;;5.80;99.90;;;;;;4913704;29;20059;-83
2022/10/12 03:50:52;;;;;;;4.53;2.10;;;5.80;99.90;;;;;;4897979;29;20044;-83
2022/10/12 03:53:18;;;;;;;8.73;2.35;;;5.90;99.90;;;;;;4928897;29;20055;-83
2022/10/12 03:55:45;;;;;;;7.70;2.65;;;5.80;99.90;;;;;;4914874;29;20040;-83
2022/10/12 03:58:12;;;;;;;5.78;3.25;;;5.80;99.90;;;;;;4911139;29;20043;-83
2022/10/12 04:00:37;;;;;;;5.07;2.60;;;5.90;99.90;;;;;;4911265;29;20044;-83
2022/10/12 04:03:03;;;;;;;5.70;2.20;;;5.80;99.90;;;;;;4930272;29;20535;-83
2022/10/12 04:05:30;;;;;;;7.80;2.25;;;5.80;99.90;;;;;;4927578;29;20044;-83
2022/10/12 04:07:55;;;;;;;8.05;2.80;;;5.70;99.90;;;;;;4899176;29;20513;-83
2022/10/12 04:10:21;;;;;;;6.78;3.25;;;5.80;99.90;;;;;;4914648;29;20154;-83
2022/10/12 04:12:47;;;;;;;6.22;3.60;;;5.90;99.90;;;;;;4943461;28;20055;-83
2022/10/12 04:15:13;;;;;;;2.92;1.90;;;5.80;99.90;;;;;;4908654;29;20126;-83
2022/10/12 04:17:39;;;;;;;3.58;2.00;;;5.80;99.90;;;;;;4927449;29;20046;-84
2022/10/12 04:20:06;;;;;;;6.97;2.15;;;5.70;99.90;;;;;;4896178;29;20040;-83
2022/10/12 04:22:32;;;;;;;3.78;1.98;;;5.70;99.90;;;;;;4927502;29;20046;-84
2022/10/12 04:24:57;;;;;;;4.53;2.58;;;5.70;99.90;;;;;;4912610;29;20122;-83
2022/10/12 04:27:23;;;;;;;5.60;2.80;;;5.70;99.90;;;;;;4942811;28;20110;-83
2022/10/12 04:29:48;;;;;;;4.97;2.40;;;5.70;99.90;;;;;;4941129;28;20063;-82
2022/10/12 04:32:14;;;;;;;8.23;3.13;;;5.70;99.90;;;;;;4928394;29;20063;-83
2022/10/12 04:34:59;;;;;;;6.65;3.10;;;5.70;99.90;;;;;;4944219;28;20048;-85
2022/10/12 04:37:26;;;;;;;9.32;3.65;;;5.70;99.90;;;;;;4910738;29;20070;-84
2022/10/12 04:39:52;;;;;;;6.57;3.33;;;5.70;99.90;;;;;;4889385;29;21578;-84
2022/10/12 04:42:18;;;;;;;5.20;2.78;;;5.70;99.90;;;;;;4924862;29;20042;-85
2022/10/12 04:44:43;;;;;;;6.38;2.72;;;5.70;99.90;;;;;;4911116;29;20078;-85
2022/10/12 04:47:09;;;;;;;8.23;3.10;;;5.70;99.90;;;;;;4939556;28;20393;-84
2022/10/12 04:49:34;;;;;;;5.70;2.40;;;5.70;99.90;;;;;;4910542;29;20040;-84
2022/10/12 04:52:00;;;;;;;5.97;2.65;;;5.70;99.90;;;;;;4895218;29;20808;-85
2022/10/12 04:54:25;;;;;;;3.22;1.90;;;5.70;99.90;;;;;;4893648;29;20039;-85
2022/10/12 04:56:51;;;;;;;5.72;2.58;;;5.60;99.90;;;;;;4941683;28;20036;-83
2022/10/12 04:59:16;;;;;;;7.68;4.15;;;5.60;99.90;;;;;;4912674;29;20131;-83
2022/10/12 05:01:42;;;;;;;4.88;2.70;;;5.50;99.90;;;;;;4912710;29;20141;-83
2022/10/12 05:04:07;;;;;;;5.65;3.65;;;5.50;99.90;;;;;;4911011;29;20051;-83
2022/10/12 05:06:33;;;;;;;11.40;3.58;;;5.60;99.90;;;;;;4912360;29;20035;-84
2022/10/12 05:08:58;;;;;;;8.73;4.25;;;5.50;99.90;;;;;;4913297;29;20127;-84
2022/10/12 05:11:24;;;;;;;8.38;4.13;;;5.50;99.90;;;;;;4910984;29;20040;-84
2022/10/12 05:13:50;;;;;;;13.65;5.13;;;5.50;99.90;;;;;;4898674;29;20105;-83
2022/10/12 05:16:15;;;;;;;7.72;4.60;;;5.60;99.90;;;;;;4897772;29;20111;-84
2022/10/12 05:18:42;;;;;;;5.55;3.83;;;5.50;99.90;;;;;;4896444;29;20044;-86
2022/10/12 05:21:07;;;;;;;7.63;3.83;;;5.50;99.90;;;;;;4909102;29;20031;-84
2022/10/12 05:23:33;;;;;;;6.32;4.00;;;5.60;99.90;;;;;;4909785;29;20086;-85
2022/10/12 05:25:59;;;;;;;11.00;3.97;;;5.50;99.90;;;;;;4893990;29;20400;-85
2022/10/12 05:28:24;;;;;;;11.20;4.47;;;5.50;99.90;;;;;;4913861;29;20047;-82
2022/10/12 05:30:51;;;;;;;5.50;2.58;;;5.40;99.90;;;;;;4912762;29;20102;-84
2022/10/12 05:33:17;;;;;;;8.98;4.07;;;5.40;99.90;;;;;;4907020;29;20059;-85
2022/10/12 05:35:43;;;;;;;9.02;3.53;;;5.40;99.90;;;;;;4908452;29;20035;-84
2022/10/12 05:38:09;;;;;;;6.35;2.88;;;5.50;99.90;;;;;;4895225;29;20039;-83
2022/10/12 05:40:36;;;;;;;4.20;2.22;;;5.40;99.90;;;;;;4928029;29;20046;-84
2022/10/12 05:43:01;;;;;;;9.40;2.72;;;5.40;99.90;;;;;;4915212;29;20073;-83
2022/10/12 05:45:27;;;;;;;6.78;4.03;;;5.30;99.90;;;;;;4896564;29;20067;-83
2022/10/12 05:47:52;;;;;;;4.07;1.77;;;5.40;99.90;;;;;;4895711;29;20039;-83
2022/10/12 05:50:21;;;;;;;5.43;2.45;;;5.30;99.90;;;;;;4908125;29;20050;-83
2022/10/12 05:52:47;;;;;;;10.93;3.85;;;5.30;99.90;;;;;;4927486;29;20508;-83
2022/10/12 05:55:12;;;;;;;9.57;3.92;;;5.30;99.90;;;;;;4927283;29;20058;-82
2022/10/12 05:57:38;;;;;;;8.50;3.97;;;5.30;99.90;;;;;;4912900;29;20502;-82
2022/10/12 06:00:07;;;;;;;9.55;4.80;;;5.30;99.90;;;;;;4896374;29;20032;-85
2022/10/12 06:02:42;;;;;;;8.18;3.90;;;5.30;99.90;;;;;;4942870;28;20562;-85
2022/10/12 06:05:20;;;;;;;7.57;5.30;;;5.60;99.90;;;;;;4926288;29;20039;-85
2022/10/12 06:07:47;;;;;;;10.63;4.28;;;5.30;99.90;;;;;;4926500;29;20067;-85
2022/10/12 06:10:13;;;;;;;10.95;2.85;;;5.50;99.90;;;;;;4895066;29;20033;-86
2022/10/12 06:12:39;;;;;;;6.53;2.80;;;5.40;99.90;;;;;;4926098;29;20031;-84
2022/10/12 06:15:05;;;;;;;6.13;3.58;;;5.30;99.90;;;;;;4911294;29;20111;-83
2022/10/12 06:17:31;;;;;;;12.18;4.38;;;5.30;99.90;;;;;;4942116;28;20043;-84
2022/10/12 06:19:57;;;;;;;7.88;4.63;;;5.30;99.90;;;;;;4911003;29;20043;-83
2022/10/12 06:22:22;;;;;;;5.97;3.67;;;5.20;99.90;;;;;;4928607;29;20040;-84
2022/10/12 06:24:48;;;;;;;8.45;3.03;;;5.30;99.90;;;;;;4894110;29;20064;-83
2022/10/12 06:27:13;;;;;;;9.45;3.83;;;5.20;99.90;;;;;;4908034;29;20047;-83
2022/10/12 06:29:39;;;;;;;19.58;3.95;;;5.20;99.90;;;;;;4941582;29;20060;-84
2022/10/12 06:32:04;;;;;;;6.70;4.22;;;5.30;99.90;;;;;;4894744;29;20093;-84
2022/10/12 06:34:30;;;;;;;5.28;3.45;;;5.40;99.90;;;;;;4896937;29;20040;-83
2022/10/12 06:36:55;;;;;;;3.67;3.10;;;5.50;99.90;;;;;;4912800;29;20325;-83
2022/10/12 06:39:24;;;;;;;10.93;4.10;;;5.50;99.90;;;;;;4945428;28;20424;-83
2022/10/12 06:41:50;;;;;;;12.60;5.03;;;5.60;99.90;;;;;;4915847;29;20054;-84
2022/10/12 06:44:15;;;;;;;8.18;4.80;;;5.70;99.90;;;;;;4939754;28;20043;-83
2022/10/12 06:46:41;;;;;;;6.10;3.67;;;5.80;99.90;;;;;;4909925;29;20100;-83
2022/10/12 06:50:02;;;;;;;6.53;3.53;;;6.00;99.90;;;;;;4950742;28;20040;-83
2022/10/12 06:52:35;;;;;;;7.43;4.30;;;6.00;99.90;;;;;;4927533;29;20045;-84
2022/10/12 06:55:02;;;;;;;10.13;4.43;;;6.10;99.90;;;;;;4887083;29;20035;-84
2022/10/12 06:57:27;;;;;;;9.68;4.82;;;6.00;99.90;;;;;;4908585;29;20047;-84
2022/10/12 06:59:53;;;;;;;7.38;4.43;;;6.10;99.90;;;;;;4909897;29;20083;-84
2022/10/12 07:02:19;;;;;;;11.75;5.25;;;6.00;99.90;;;;;;4927579;29;20046;-84
2022/10/12 07:04:51;;;;;;;9.90;5.03;;;6.00;99.90;;;;;;4924623;29;20039;-84
2022/10/12 07:07:17;;;;;;;9.98;5.95;;;5.90;99.90;;;;;;4911052;29;20066;-84
2022/10/12 07:09:43;;;;;;;10.02;5.07;;;5.90;99.90;;;;;;4924012;29;20036;-84
2022/10/12 07:12:08;;;;;;;9.43;4.50;;;6.10;99.90;;;;;;4909981;29;20044;-84
2022/10/12 07:14:34;;;;;;;13.23;5.70;;;6.20;99.90;;;;;;4942685;29;20075;-84
2022/10/12 07:16:59;;;;;;;12.90;5.55;;;6.30;99.90;;;;;;4916986;29;20051;-84
2022/10/12 07:19:25;;;;;;;10.45;6.28;;;6.50;99.90;;;;;;4927717;29;20050;-84
2022/10/12 07:21:50;;;;;;;16.95;6.63;;;6.60;99.90;;;;;;4911505;29;20047;-84
2022/10/12 07:24:16;;;;;;;11.93;6.72;;;6.70;99.90;;;;;;4908514;29;20047;-84
2022/10/12 07:26:41;;;;;;;15.57;7.57;;;6.80;99.90;;;;;;4911096;29;20039;-84
2022/10/12 07:29:08;;;;;;;18.80;8.48;;;7.00;99.90;;;;;;4929153;29;20035;-84
2022/10/12 07:31:34;;;;;;;18.08;8.43;;;7.20;99.90;;;;;;4928528;29;20981;-84
2022/10/12 07:33:59;;;;;;;19.13;8.13;;;7.30;99.90;;;;;;4910554;29;20044;-83
2022/10/12 07:36:25;;;;;;;12.43;7.82;;;7.50;99.90;;;;;;4895713;29;20040;-84
2022/10/12 07:39:06;;;;;;;15.05;8.48;;;7.60;99.90;;;;;;4911021;29;20040;-84
2022/10/12 07:41:32;;;;;;;18.20;8.65;;;7.80;99.90;;;;;;4924772;29;20123;-83
2022/10/12 07:43:57;;;;;;;20.27;8.65;;;8.00;99.90;;;;;;4942517;28;20039;-83
2022/10/12 07:46:24;;;;;;;10.73;7.13;;;8.20;99.90;;;;;;4910307;29;20159;-84
2022/10/12 07:48:50;;;;;;;15.60;7.45;;;8.30;99.90;;;;;;4911665;29;20083;-83
2022/10/12 07:51:16;;;;;;;15.13;7.20;;;8.50;99.90;;;;;;4912949;29;20749;-84
2022/10/12 07:53:41;;;;;;;16.48;6.93;;;8.70;99.90;;;;;;4912149;29;20044;-83
2022/10/12 07:56:14;;;;;;;20.50;7.97;;;8.80;99.90;;;;;;4928029;29;20526;-83
2022/10/12 07:58:40;;;;;;;11.75;7.47;;;9.20;99.90;;;;;;4910812;29;20498;-83
2022/10/12 08:01:07;;;;;;;15.70;8.35;;;8.90;99.90;;;;;;4943856;28;20130;-83
2022/10/12 08:03:34;;;;;;;16.30;6.40;;;9.00;99.90;;;;;;4897498;29;21766;-83
2022/10/12 08:06:10;;;;;;;17.63;7.30;;;9.10;99.90;;;;;;4914581;29;20653;-83
2022/10/12 08:08:35;;;;;;;;;;;9.10;99.90;;;;;;4928635;29;20050;-83
2022/10/12 08:11:01;;;;;;;15.80;8.13;;;9.20;99.90;;;;;;4912664;29;19926;-83
2022/10/12 08:13:26;;;;;;;11.40;6.88;;;9.30;99.90;;;;;;4897796;29;20759;-83
2022/10/12 08:15:52;;;;;;;20.13;8.13;;;9.30;99.90;;;;;;4898052;29;20395;-83
2022/10/12 08:18:18;;;;;;;13.85;6.85;;;9.40;99.90;;;;;;4912205;29;20087;-83
2022/10/12 08:20:44;;;;;;;18.02;6.35;;;9.50;99.90;;;;;;4929783;29;20052;-83
2022/10/12 08:23:09;;;;;;;12.23;5.80;;;9.70;99.90;;;;;;4897935;29;20043;-83
2022/10/12 08:25:36;;;;;;;13.57;6.03;;;9.60;99.90;;;;;;4944297;28;20043;-83
2022/10/12 08:28:06;;;;;;;17.85;7.15;;;9.80;99.90;;;;;;4928635;29;20062;-84
2022/10/12 08:30:37;;;;;;;12.27;5.57;;;9.70;99.90;;;;;;4943784;28;20069;-83
2022/10/12 08:33:05;;;;;;;14.35;6.05;;;9.80;99.90;;;;;;4914886;29;20036;-83
2022/10/12 08:35:31;;;;;;;14.82;4.90;;;9.90;99.90;;;;;;4930473;29;20744;-83
2022/10/12 08:37:57;;;;;;;13.93;4.65;;;9.90;99.90;;;;;;4897577;29;20040;-83
2022/10/12 08:40:30;;;;;;;12.38;4.00;;;10.00;99.90;;;;;;4896113;29;20044;-83
2022/10/12 08:43:03;;;;;;;11.38;4.22;;;10.10;99.90;;;;;;4914022;29;20047;-83
2022/10/12 08:45:52;;;;;;;14.95;4.88;;;10.10;99.90;;;;;;4927720;29;20055;-83
2022/10/12 08:48:23;;;;;;;13.63;4.82;;;10.10;99.90;;;;;;4929720;29;20098;-84
2022/10/12 08:50:56;;;;;;;13.13;5.05;;;10.10;99.90;;;;;;4913072;29;20086;-84
2022/10/12 08:53:25;;;;;;;8.55;3.80;;;10.10;99.90;;;;;;4898140;29;20105;-83
2022/10/12 08:55:51;;;;;;;12.02;4.93;;;10.10;99.90;;;;;;4898548;29;20795;-83
2022/10/12 08:58:19;;;;;;;11.20;4.35;;;10.20;99.90;;;;;;4927261;29;20090;-84
2022/10/12 09:00:49;;;;;;;10.77;4.30;;;10.30;99.90;;;;;;4913659;29;20584;-83
2022/10/12 09:03:22;;;;;;;11.40;5.00;;;10.20;99.90;;;;;;4892724;29;20055;-84
2022/10/12 09:06:18;;;;;;;13.60;4.65;;;10.30;99.90;;;;;;4909128;29;20135;-84
2022/10/12 09:09:00;;;;;;;15.25;4.85;;;10.40;99.90;;;;;;4897571;29;20043;-83
2022/10/12 09:11:51;;;;;;;9.32;3.83;;;10.50;99.90;;;;;;4913447;29;21481;-83
2022/10/12 09:14:20;;;;;;;15.90;4.07;;;10.60;99.90;;;;;;4914645;29;20134;-83
2022/10/12 09:16:49;;;;;;;19.63;3.92;;;10.80;99.90;;;;;;4911414;29;20047;-83
2022/10/12 09:19:28;;;;;;;11.45;3.55;;;10.80;99.90;;;;;;4944405;28;20039;-83
2022/10/12 09:21:55;;;;;;;10.50;3.30;;;10.90;99.90;;;;;;4928015;29;20040;-83
2022/10/12 09:24:27;;;;;;;10.13;3.47;;;11.00;99.90;;;;;;4913437;29;20048;-83
2022/10/12 09:26:57;;;;;;;10.27;4.05;;;11.10;99.90;;;;;;4912792;29;20098;-83
2022/10/12 09:29:26;;;;;;;15.88;3.40;;;11.20;99.90;;;;;;4898311;29;20040;-83
2022/10/12 09:32:15;;;;;;;12.57;3.75;;;11.30;99.90;;;;;;4941990;28;20051;-84
2022/10/12 09:34:41;;;;;;;11.90;3.92;;;11.40;99.90;;;;;;4928597;29;20063;-83
2022/10/12 09:37:24;;;;;;;14.65;2.97;;;11.50;99.90;;;;;;4928362;29;20036;-83
2022/10/12 09:39:50;;;;;;;12.05;2.88;;;11.60;99.90;;;;;;4929890;29;20047;-84
2022/10/12 09:42:15;;;;;;;9.73;4.07;;;11.70;99.90;;;;;;4912117;29;20039;-83
2022/10/12 09:44:47;;;;;;;11.25;4.15;;;11.70;99.90;;;;;;4912752;29;20606;-83
2022/10/12 09:47:27;;;;;;;13.75;3.35;;;11.80;99.90;;;;;;4940348;28;20500;-84
2022/10/12 09:49:58;;;;;;;14.60;4.18;;;11.80;99.90;;;;;;4942534;28;20083;-83
2022/10/12 09:52:29;;;;;;;10.45;3.85;;;12.00;99.90;;;;;;4943660;28;20083;-83
2022/10/12 09:55:00;;;;;;;10.60;3.42;;;12.10;99.90;;;;;;4912271;29;20567;-83
2022/10/12 09:57:32;;;;;;;13.20;3.47;;;12.20;99.90;;;;;;4913482;29;20399;-84
2022/10/12 10:00:00;;;;;;;13.50;3.78;;;12.20;99.90;;;;;;4912080;29;20048;-84
2022/10/12 10:02:26;;;;;;;10.13;3.78;;;12.20;99.90;;;;;;4943184;28;20047;-84
2022/10/12 10:04:53;;;;;;;12.20;3.28;;;12.20;99.90;;;;;;4925483;29;20046;-84
2022/10/12 10:07:26;;;;;;;18.23;4.05;;;12.20;99.90;;;;;;4909074;29;20063;-84
2022/10/12 10:10:20;;;;;;;12.80;3.35;;;12.30;99.90;;;;;;4926098;29;20036;-84
2022/10/12 10:12:59;;;;;;;11.30;3.35;;;12.30;99.90;;;;;;4929508;29;20054;-84
2022/10/12 10:15:29;;;;;;;13.27;3.83;;;12.50;99.90;;;;;;4945502;28;20064;-84
2022/10/12 10:17:58;;;;;;;9.93;3.50;;;12.70;99.90;;;;;;4900077;29;20032;-84
2022/10/12 10:20:41;;;;;;;11.80;3.38;;;12.90;99.90;;;;;;4916960;29;20051;-84
2022/10/12 10:23:20;;;;;;;9.35;3.55;;;13.10;99.90;;;;;;4947218;29;20048;-84
2022/10/12 10:25:54;;;;;;;12.23;3.25;;;13.20;99.90;;;;;;4945762;28;20044;-83
2022/10/12 10:28:23;;;;;;;12.88;2.78;;;13.50;99.90;;;;;;4901390;29;20602;-84
2022/10/12 10:30:58;;;;;;;10.82;2.72;;;13.60;99.90;;;;;;4915953;29;20516;-84
2022/10/12 10:33:43;;;;;;;11.80;4.00;;;13.80;99.90;;;;;;4915556;29;20082;-84
2022/10/12 10:36:28;;;;;;;16.33;2.75;;;14.00;99.90;;;;;;4931762;29;20079;-84
2022/10/12 10:39:18;;;;;;;10.80;2.58;;;14.00;99.90;;;;;;4917610;29;20068;-84
2022/10/12 10:42:17;;;;;;;8.20;2.28;;;14.30;99.90;;;;;;4930972;29;20664;-84
2022/10/12 10:45:07;;;;;;;12.75;2.83;;;14.50;99.90;;;;;;4943831;29;20050;-84
2022/10/12 10:48:00;;;;;;;6.00;1.67;;;14.80;99.90;;;;;;4918618;29;20050;-84
2022/10/12 10:50:35;;;;;;;8.32;2.38;;;15.10;99.90;;;;;;4913058;29;20052;-84
2022/10/12 10:53:16;;;;;;;11.32;2.17;;;15.20;99.90;;;;;;4932086;29;20044;-84
2022/10/12 10:56:02;;;;;;;8.18;2.00;;;15.40;99.90;;;;;;4931041;29;20405;-84
2022/10/12 10:58:37;;;;;;;9.73;2.85;;;15.60;99.90;;;;;;4928416;29;20071;-84
2022/10/12 11:01:31;;;;;;;10.75;2.50;;;15.80;99.90;;;;;;4896545;29;20067;-84
2022/10/12 11:04:15;;;;;;;10.05;1.98;;;15.90;99.90;;;;;;4929111;29;20632;-84
2022/10/12 11:06:43;;;;;;;7.75;1.98;;;15.90;99.90;;;;;;4898313;29;20050;-84
2022/10/12 11:09:18;;;;;;;12.52;1.85;;;15.90;99.90;;;;;;4947234;28;20070;-84
2022/10/12 11:11:50;;;;;;;7.55;2.20;;;16.00;99.90;;;;;;4943976;29;20484;-84
2022/10/12 11:14:42;;;;;;;9.43;2.15;;;16.20;99.90;;;;;;4911182;29;20114;-85
2022/10/12 11:17:10;;;;;;;10.43;1.98;;;16.50;99.90;;;;;;4945638;28;20098;-85
2022/10/12 11:20:16;;;;;;;10.68;2.80;;;16.50;99.90;;;;;;4947209;28;20039;-84
2022/10/12 11:22:53;;;;;;;11.32;2.72;;;16.60;99.90;;;;;;4904799;29;20591;-83
2022/10/12 11:25:27;;;;;;;7.88;1.95;;;16.70;99.90;;;;;;4917494;29;20082;-84
2022/10/12 11:27:53;;;;;;;10.00;3.28;;;16.90;99.90;;;;;;4919910;29;20714;-83
2022/10/12 11:30:25;;;;;;;8.82;2.50;;;17.10;99.90;;;;;;4920400;29;20055;-84
2022/10/12 11:32:58;;;;;;;11.25;2.47;;;17.30;99.90;;;;;;4891679;29;20051;-84
2022/10/12 11:35:35;;;;;;;9.25;3.00;;;17.40;99.90;;;;;;4904202;29;21759;-84
2022/10/12 11:38:07;;;;;;;10.00;2.63;;;17.40;99.90;;;;;;4922431;29;20040;-84
2022/10/12 11:40:39;;;;;;;10.32;2.40;;;17.40;99.90;;;;;;4936012;28;20424;-84
2022/10/12 11:43:09;;;;;;;8.50;2.47;;;17.30;99.90;;;;;;4921603;29;20047;-84
2022/10/12 11:45:42;;;;;;;8.52;2.38;;;17.30;99.90;;;;;;4920605;28;20127;-84
2022/10/12 11:48:16;;;;;;;9.27;2.30;;;17.30;99.90;;;;;;4938529;28;20285;-84
2022/10/12 11:50:48;;;;;;;11.00;2.35;;;17.30;99.90;;;;;;4908624;29;20728;-83
2022/10/12 11:53:29;;;;;;;7.65;2.22;;;16.90;99.90;;;;;;4935141;28;20270;-84
2022/10/12 11:56:12;;;;;;;8.95;2.40;;;16.90;99.90;;;;;;4918928;29;20089;-85
2022/10/12 11:58:43;;;;;;;8.07;2.40;;;16.90;99.90;;;;;;4889805;29;20818;-84
2022/10/12 12:01:46;;;;;;;9.23;1.75;;;16.70;99.90;;;;;;4889527;29;20047;-84
2022/10/12 12:04:24;;;;;;;6.85;2.15;;;16.70;99.90;;;;;;4936153;28;20052;-84
2022/10/12 12:06:56;;;;;;;8.88;2.20;;;16.80;99.90;;;;;;4937871;28;20442;-84
2022/10/12 12:09:38;;;;;;;7.85;2.50;;;16.80;99.90;;;;;;4902950;29;20144;-84
2022/10/12 12:12:15;;;;;;;12.50;3.00;;;16.90;99.90;;;;;;4920331;29;20098;-85
2022/10/12 12:14:48;;;;;;;9.20;2.20;;;16.70;99.90;;;;;;4922995;29;20063;-84
2022/10/12 12:17:24;;;;;;;9.60;2.22;;;16.80;99.90;;;;;;4901964;29;20162;-85
2022/10/12 12:19:54;;;;;;;8.68;3.10;;;16.70;99.90;;;;;;4919985;29;20484;-84
2022/10/12 12:22:47;;;;;;;9.77;1.92;;;16.50;99.90;;;;;;4934669;28;20066;-84
2022/10/12 12:25:17;;;;;;;10.80;2.40;;;16.40;99.90;;;;;;4937215;28;20967;-85
2022/10/12 12:27:52;;;;;;;11.43;3.25;;;16.50;99.90;;;;;;4906094;29;20059;-85
2022/10/12 12:30:18;;;;;;;6.32;2.47;;;16.60;99.90;;;;;;4910727;29;20044;-84
2022/10/12 12:32:55;;;;;;;7.55;2.20;;;16.70;99.90;;;;;;4906538;29;20050;-85
2022/10/12 12:35:26;;;;;;;7.38;2.88;;;16.90;99.90;;;;;;4935927;28;20095;-84
2022/10/12 12:38:17;;;;;;;5.75;1.85;;;17.00;99.90;;;;;;4934630;28;20566;-85
2022/10/12 12:41:09;;;;;;;11.00;2.42;;;17.00;99.90;;;;;;4907342;29;20397;-84
2022/10/12 12:43:39;;;;;;;8.68;1.98;;;17.10;99.90;;;;;;4933524;28;20043;-85
2022/10/12 12:46:13;;;;;;;10.95;2.60;;;17.10;99.90;;;;;;4935092;28;20087;-85
2022/10/12 12:48:42;;;;;;;6.88;1.67;;;16.90;99.90;;;;;;4920848;29;20055;-85
2022/10/12 12:51:16;;;;;;;8.05;1.90;;;16.80;99.90;;;;;;4918646;29;20526;-85
2022/10/12 12:53:54;;;;;;;6.88;1.83;;;16.90;99.90;;;;;;4931767;28;20500;-85
2022/10/12 12:56:35;;;;;;;9.25;2.83;;;16.80;99.90;;;;;;4906557;29;20039;-85
2022/10/12 12:59:37;;;;;;;9.45;2.75;;;17.00;99.90;;;;;;4904090;29;20044;-84
2022/10/12 13:02:26;;;;;;;9.68;2.50;;;16.80;99.90;;;;;;4924361;29;20043;-85
2022/10/12 13:05:19;;;;;;;11.40;3.65;;;16.80;99.90;;;;;;4919366;29;20059;-86
2022/10/12 13:08:11;;;;;;;13.73;2.83;;;16.70;99.90;;;;;;4923614;29;20063;-85
2022/10/12 13:11:26;;;;;;;8.85;2.13;;;16.50;99.90;;;;;;4938691;28;20044;-85